Flight Track Log - Related Links

Times and Time Zones

All times are in EDT time to prevent confusion due to time zone crossing. See the N5551L flight status page for this flight to view local times or setup timezone preferences in your user account.

Time Position Orientation Groundspeed Altitude Reporting Facility
EDT Latitude Longitude Course Direction KTS MPH feet Rate Location/Type
Thu 10:01:31 AM 26.1492 -81.7464 120° Southeast 69 79 1,000  Level Miami Center
Thu 10:02:33 AM 26.1422 -81.7236 109° East 71 82 1,600 532 Climbing Miami Center
Thu 10:03:35 AM 26.1347 -81.7019 111° Southeast 73 84 2,100 488 Climbing Miami Center
Thu 10:04:36 AM 26.1311 -81.6783 100° East 73 84 2,600 439 Climbing Miami Center
Thu 10:05:38 AM 26.1214 -81.6558 116° Southeast 77 89 3,000 145 Climbing Miami Center
Thu 10:06:40 AM 26.1114 -81.6294 113° Southeast 82 94 2,900 -97 Descending Miami Center
Thu 10:07:42 AM 26.1067 -81.6042 102° East 83 96 2,800  Descending Miami Center
Thu 10:08:44 AM 26.0942 -81.5792 119° Southeast 84 97 2,900 97 Climbing Miami Center
Thu 10:09:46 AM 26.0853 -81.5561 113° Southeast 83 96 3,000 48 Climbing Miami Center
Thu 10:10:48 AM 26.0753 -81.5303 113° Southeast 84 97 3,000 -48 Level Miami Center
Thu 10:11:50 AM 26.0644 -81.5058 116° Southeast 86 99 2,900 -48 Descending Miami Center
Thu 10:12:52 AM 26.0531 -81.4811 117° Southeast 86 99 2,900 48 Level Miami Center
Thu 10:13:54 AM 26.0472 -81.4578 106° East 81 93 3,000 48 Climbing Miami Center
Thu 10:14:56 AM 26.0400 -81.4322 107° East 81 93 3,000  Level Miami Center
Thu 10:15:58 AM 26.0300 -81.4083 115° Southeast 85 98 3,000 -48 Level Miami Center
Thu 10:17:00 AM 26.0172 -81.3831 106° East 85 98 2,900 -48 Descending Miami Center
Thu 10:18:02 AM 26.0125 -81.3583 102° East 85 98 2,900  Level Miami Center
Thu 10:19:04 AM 26.0075 -81.3314 102° East 85 98 2,900 48 Level Miami Center
Thu 10:20:06 AM 26.0083 -81.3075 88° East 80 92 3,000 48 Climbing Miami Center
Thu 10:21:08 AM 26.0053 -81.2822 98° East 78 90 3,000  Level Miami Center
Thu 10:22:10 AM 26.0011 -81.2569 100° East 79 91 3,000  Level Miami Center
Thu 10:24:14 AM 25.9908 -81.2031 102° East 86 99 3,000 -32 Level Miami Center
Thu 10:25:16 AM 25.9881 -81.1758 96° East 85 98 2,900  Descending Miami Center
Thu 10:26:18 AM 25.9881 -81.1511 90° East 84 97 3,000  Climbing Miami Center
Thu 10:27:19 AM 25.9967 -81.1258 69° East 81 93 2,900 -49 Descending Miami Center
Thu 10:28:21 AM 26.0072 -81.1056 60° Northeast 80 92 2,900  Level Miami Center
Thu 10:29:23 AM 26.0067 -81.0792 91° East 85 98 2,900 -47 Level Miami Center
Thu 10:30:30 AM 26.0056 -81.0508 92° East 81 93 2,800 -242 Descending Miami Center
Thu 10:31:27 AM 26.0050 -81.0244 91° East 89 102 2,400 -403 Descending Miami Center
Thu 10:32:29 AM 26.0017 -80.9961 97° East 90 104 2,000 -242 Descending Miami Center
Thu 10:33:31 AM 25.9994 -80.9703 95° East 88 101 1,900  Descending Miami Center
Thu 10:34:33 AM 25.9969 -80.9453 96° East 85 98 2,000  Climbing Miami Center
Thu 10:35:35 AM 25.9919 -80.9208 103° East 79 91 1,900 -48 Descending Miami Center
Thu 10:36:37 AM 25.9894 -80.8969 97° East 81 93 1,900  Level Miami Center
Thu 10:37:38 AM 25.9822 -80.8703 107° East 79 91 1,900  Level Miami Center
Thu 10:38:39 AM 25.9817 -80.8447 91° East 81 93 1,900  Level Miami Center
Thu 10:39:40 AM 25.9792 -80.8214 97° East 76 87 1,900 49 Level Miami Center
Thu 10:40:41 AM 25.9789 -80.7958 91° East 77 89 2,000 49 Climbing Miami Center
Thu 10:41:42 AM 25.9761 -80.7725 98° East 77 89 2,000  Level Miami Center
Thu 10:42:49 AM 25.9719 -80.7483 101° East 78 90 2,000  Level Miami Center
Thu 10:43:44 AM 25.9669 -80.7231 102° East 81 93 2,000  Level Miami Center
Thu 10:44:45 AM 25.9622 -80.6972 101° East 80 92 2,000  Level Miami Center
Thu 10:45:55 AM 25.9603 -80.6697 94° East 79 91 2,000 -49 Level Miami Center
Thu 10:46:48 AM 25.9592 -80.6483 93° East 77 89 1,900  Descending Miami Center
Thu 10:47:49 AM 25.9544 -80.6247 103° East 82 94 2,000 85 Climbing Miami Center
Thu 10:47:59 AM 25.9542 -80.6222 97° East 79 91 2,000  Level Miami Center
Thu 10:48:50 AM 25.9519 -80.5989 96° East 78 90 2,000  Level Miami Center
Thu 10:49:01 AM 25.9517 -80.5975 103° East 80 92 2,000  Level Miami Center
Thu 10:50:03 AM 25.9483 -80.5739 99° East 79 91 2,000  Level Miami Center
Thu 10:50:53 AM 25.9425 -80.5494 105° East 78 90 2,000 -55 Level Miami Center
Thu 10:51:53 AM 25.9358 -80.5258 107° East 82 94 1,900 -81 Descending Miami Center
Thu 10:52:07 AM 25.9356 -80.5214 94° East 79 91 1,900 98 Level Miami Center
Thu 10:52:54 AM 25.9311 -80.5022 104° East 80 92 2,000 97 Climbing Miami Center
Thu 10:53:09 AM 25.9311 -80.4969 90° East 80 92 2,000 -97 Level Miami Center
Thu 10:53:56 AM 25.9286 -80.4767 98° East 85 98 1,900 -97 Descending Miami Center
Thu 10:54:11 AM 25.9292 -80.4717 83° East 80 92 1,900 98 Level Miami Center
Thu 10:54:57 AM 25.9258 -80.4533 101° East 74 85 2,000 97 Climbing Miami Center
Thu 10:55:13 AM 25.9267 -80.4483 80° East 80 92 2,000 -98 Level Miami Center
Thu 10:55:58 AM 25.9256 -80.4256 93° East 81 93 1,900 -95 Descending Miami Center
Thu 10:56:16 AM 25.9247 -80.4236 115° Southeast 80 92 1,900 -197 Level Miami Center
Thu 10:56:59 AM 25.9228 -80.4019 96° East 82 94 1,700 -387 Descending Miami Center
Thu 10:57:18 AM 25.9219 -80.3931 96° East 80 92 1,500 -492 Descending Miami Center
Thu 10:58:00 AM 25.9183 -80.3739 102° East 87 100 1,200 -387 Descending Miami Center
Thu 10:58:20 AM 25.9181 -80.3667 92° East 83 96 1,100 -295 Descending Miami Center
Thu 10:59:01 AM 25.9158 -80.3483 98° East 88 101 900 -194 Descending Miami Center
Thu 10:59:22 AM 25.9169 -80.3394 82° East 84 97 900 -295 Level Miami Center
Thu 11:00:02 AM 25.9156 -80.3203 95° East 86 99 600 -387 Descending Miami Center
Thu 11:00:24 AM 25.9156 -80.3133 90° East 85 98 500 1,714 Descending Miami Center
Thu 11:01:26 AM 25.9125 -80.2906 98° East 80 92 3,000 2,419 Climbing Miami Center
Thu 11:03:00 AM 25.9074 -80.2782 103° East  Level Estimated

Login

Don't have an account? Register now (free) for customized features, flight alerts, and more!